createdAt,value
2023-01-12T00:00:17.608Z,4.800
2023-01-12T00:01:16.077Z,7.099
2023-01-12T00:02:16.635Z,5.900
2023-01-12T00:03:16.189Z,6.099
2023-01-12T00:04:16.444Z,5.300
2023-01-12T00:05:16.115Z,8
2023-01-12T00:06:16.389Z,7.800
2023-01-12T00:07:17.076Z,5.199
2023-01-12T00:08:16.318Z,7.099
2023-01-12T00:09:16.729Z,9
2023-01-12T00:10:16.384Z,4.599
2023-01-12T00:11:15.941Z,8.100
2023-01-12T00:12:16.625Z,5.199
2023-01-12T00:15:16.432Z,6.5
2023-01-12T00:16:16.489Z,4.699
2023-01-12T00:17:16.131Z,6
2023-01-12T00:18:16.225Z,5.699
2023-01-12T00:19:16.605Z,4.800
2023-01-12T00:20:16.195Z,5.5
2023-01-12T00:21:16.351Z,6.300
2023-01-12T00:22:16.249Z,4.699
2023-01-12T00:23:15.604Z,5.699
2023-01-12T00:24:16.361Z,5.800
2023-01-12T00:25:16.735Z,5.599
2023-01-12T00:26:16.000Z,6.199
2023-01-12T00:28:16.126Z,5.199
2023-01-12T00:29:16.693Z,4.300
2023-01-12T00:30:16.435Z,7.199
2023-01-12T00:31:16.417Z,4.099
2023-01-12T00:32:16.368Z,6.199
2023-01-12T00:33:15.878Z,5.800
2023-01-12T00:34:16.123Z,5.400
2023-01-12T00:35:16.567Z,4.5
2023-01-12T00:36:15.725Z,4.900
2023-01-12T00:37:16.050Z,5.699
2023-01-12T00:39:16.393Z,6.699
2023-01-12T00:40:16.117Z,5.900
2023-01-12T00:41:16.343Z,6.199
2023-01-12T00:42:16.464Z,5.900
2023-01-12T00:43:16.061Z,4.599
2023-01-12T00:44:15.991Z,5.900
2023-01-12T00:45:16.327Z,5.800
2023-01-12T00:46:15.820Z,4.5
2023-01-12T00:47:16.272Z,6.900
2023-01-12T00:48:16.337Z,6.400
2023-01-12T00:50:19.185Z,5.699
2023-01-12T00:52:29.289Z,6.400
2023-01-12T00:54:15.888Z,8
2023-01-12T00:55:16.385Z,4.300
2023-01-12T00:56:16.337Z,5.800
2023-01-12T00:57:16.068Z,7.300
2023-01-12T00:58:16.077Z,7.400
2023-01-12T00:59:16.157Z,5.800
2023-01-12T01:00:16.748Z,6
2023-01-12T01:01:18.182Z,7.199
2023-01-12T01:02:16.087Z,6.800
2023-01-12T01:03:16.193Z,5.5
2023-01-12T01:04:16.572Z,7
2023-01-12T01:05:16.052Z,6.199
2023-01-12T01:07:16.018Z,7.099
2023-01-12T01:08:16.488Z,5.5
2023-01-12T01:09:16.187Z,5
2023-01-12T01:10:16.791Z,7
2023-01-12T01:11:16.287Z,6.800
2023-01-12T01:12:16.500Z,4.900
2023-01-12T01:13:16.261Z,6.800
2023-01-12T01:14:16.671Z,7.5
2023-01-12T01:15:16.666Z,5.199
2023-01-12T01:16:16.536Z,6.400
2023-01-12T01:17:16.294Z,5.900
2023-01-12T01:18:16.067Z,5.699
2023-01-12T01:19:16.669Z,9.100
2023-01-12T01:20:16.300Z,6
2023-01-12T01:21:15.928Z,5
2023-01-12T01:22:16.803Z,5.400
2023-01-12T01:24:16.280Z,7.199
2023-01-12T01:25:16.317Z,6.300
2023-01-12T01:26:16.920Z,6.900
2023-01-12T01:27:16.645Z,6.800
2023-01-12T01:28:16.533Z,7.199
2023-01-12T01:29:16.294Z,6
2023-01-12T01:30:16.431Z,6.800
2023-01-12T01:31:16.622Z,7.300
2023-01-12T01:32:16.155Z,4.800
2023-01-12T01:33:16.101Z,6.599
2023-01-12T01:34:16.769Z,6.900
2023-01-12T01:35:16.744Z,4.5
2023-01-12T01:36:16.375Z,6.099
2023-01-12T01:37:16.940Z,8
2023-01-12T01:38:16.392Z,6.400
2023-01-12T01:39:16.714Z,5.199
2023-01-12T01:40:16.612Z,5.5
2023-01-12T01:41:16.477Z,5.900
2023-01-12T01:43:16.567Z,6.199
2023-01-12T01:44:16.441Z,7.300
2023-01-12T01:45:16.389Z,7.5
2023-01-12T01:46:16.488Z,8.699
2023-01-12T01:47:16.916Z,7.900
2023-01-12T01:48:16.636Z,5.699
2023-01-12T01:49:16.590Z,6.099
2023-01-12T01:50:16.735Z,8.800
2023-01-12T01:51:16.902Z,7.5
2023-01-12T01:52:16.761Z,5.900
2023-01-12T01:53:16.450Z,8.199
2023-01-12T01:54:16.393Z,5.400
2023-01-12T01:55:16.188Z,5.800
2023-01-12T01:56:16.397Z,7.599
2023-01-12T01:57:16.041Z,5.199
2023-01-12T01:58:16.032Z,7.5
2023-01-12T01:59:16.025Z,5.800
2023-01-12T02:00:16.980Z,7
2023-01-12T02:01:16.779Z,7.900
2023-01-12T02:02:16.149Z,5.699
2023-01-12T02:04:16.299Z,5
2023-01-12T02:05:17.036Z,4.400
2023-01-12T02:06:16.167Z,5.800
2023-01-12T02:07:15.866Z,7
2023-01-12T02:08:16.006Z,6.300
2023-01-12T02:09:16.139Z,5.300
2023-01-12T02:10:16.266Z,5.099
2023-01-12T02:12:16.326Z,5.300
2023-01-12T02:13:16.234Z,5.400
2023-01-12T02:14:15.775Z,6
2023-01-12T02:15:16.225Z,5.900
2023-01-12T02:16:16.779Z,4.699
2023-01-12T02:17:16.526Z,5.599
2023-01-12T02:18:15.924Z,4
2023-01-12T02:19:16.210Z,3.900
2023-01-12T02:20:16.382Z,7.699
2023-01-12T02:21:16.327Z,4.5
2023-01-12T02:22:16.293Z,5
2023-01-12T02:23:16.681Z,4.300
2023-01-12T02:24:15.956Z,5
2023-01-12T02:26:16.545Z,4.599
2023-01-12T02:27:16.100Z,3.599
2023-01-12T02:28:16.078Z,7.5
2023-01-12T02:29:16.308Z,4.900
2023-01-12T02:30:16.546Z,4.300
2023-01-12T02:31:15.753Z,6.300
2023-01-12T02:32:16.182Z,6.199
2023-01-12T02:33:16.419Z,4
2023-01-12T02:34:16.272Z,5.099
2023-01-12T02:36:15.974Z,6
2023-01-12T02:37:16.480Z,5.400
2023-01-12T02:38:16.013Z,5.300
2023-01-12T02:39:16.715Z,3.400
2023-01-12T02:40:15.578Z,3.900
2023-01-12T02:41:16.324Z,6.5
2023-01-12T02:42:16.642Z,4.699
2023-01-12T02:43:16.067Z,5.300
2023-01-12T02:44:16.310Z,5.699
2023-01-12T02:45:16.635Z,5.199
2023-01-12T02:46:16.179Z,5.400
2023-01-12T02:47:16.450Z,5.199
2023-01-12T02:48:15.903Z,4.800
2023-01-12T02:49:16.539Z,5.300
2023-01-12T02:50:15.993Z,3.900
2023-01-12T02:51:16.580Z,6.099
2023-01-12T02:52:16.307Z,5.300
2023-01-12T02:53:16.680Z,3.799
2023-01-12T02:54:16.199Z,5.300
2023-01-12T02:55:16.563Z,3.5
2023-01-12T02:56:16.117Z,4.400
2023-01-12T02:57:15.871Z,4.599
2023-01-12T02:58:16.259Z,4.800
2023-01-12T02:59:16.465Z,5.300
2023-01-12T03:00:16.583Z,4.599
2023-01-12T03:01:16.593Z,6.099
2023-01-12T03:02:16.272Z,4.599
2023-01-12T03:03:16.279Z,6.099
2023-01-12T03:04:16.673Z,5.400
2023-01-12T03:05:16.287Z,6.199
2023-01-12T03:07:16.349Z,5.099
2023-01-12T03:08:15.723Z,3.400
2023-01-12T03:09:15.986Z,5.800
2023-01-12T03:10:16.097Z,5.099
2023-01-12T03:11:16.047Z,4.800
2023-01-12T03:12:16.411Z,6.199
2023-01-12T03:13:15.887Z,5.599
2023-01-12T03:14:15.835Z,4.599
2023-01-12T03:15:16.469Z,5.400
2023-01-12T03:16:16.848Z,4.599
2023-01-12T03:17:16.759Z,5.699
2023-01-12T03:18:15.950Z,5
2023-01-12T03:19:16.012Z,4.599
2023-01-12T03:20:16.103Z,6.5
2023-01-12T03:21:15.942Z,6.599
2023-01-12T03:22:16.373Z,4.300
2023-01-12T03:23:15.798Z,5
2023-01-12T03:24:16.065Z,5.800
2023-01-12T03:25:16.494Z,5.599
2023-01-12T03:26:15.848Z,4.300
2023-01-12T03:27:16.234Z,5.599
2023-01-12T03:28:16.537Z,5.400
2023-01-12T03:29:16.082Z,6.099
2023-01-12T03:30:16.480Z,7.5
2023-01-12T03:31:16.394Z,4.300
2023-01-12T03:32:16.069Z,4.800
2023-01-12T03:34:16.447Z,4.400
2023-01-12T03:35:15.880Z,5.800
2023-01-12T03:36:15.861Z,4.300
2023-01-12T03:37:16.209Z,5.300
2023-01-12T03:38:16.466Z,4.800
2023-01-12T03:39:15.995Z,5
2023-01-12T03:40:16.289Z,5.099
2023-01-12T03:42:16.459Z,4.800
2023-01-12T03:43:16.175Z,5.5
2023-01-12T03:44:16.387Z,5.099
2023-01-12T03:45:16.143Z,5.599
2023-01-12T03:46:16.438Z,5.400
2023-01-12T03:47:16.038Z,4.900
2023-01-12T03:48:16.159Z,6.599
2023-01-12T03:49:16.440Z,5.400
2023-01-12T03:50:16.547Z,5
2023-01-12T03:51:16.276Z,6
2023-01-12T03:52:16.374Z,4.900
2023-01-12T03:53:16.237Z,6
2023-01-12T03:54:16.386Z,7.599
2023-01-12T03:55:16.145Z,6.599
2023-01-12T03:56:16.473Z,5.099
2023-01-12T03:57:16.217Z,6.599
2023-01-12T03:58:15.938Z,5.5
2023-01-12T03:59:16.602Z,5.800
2023-01-12T04:00:16.980Z,5.400
2023-01-12T04:01:16.862Z,5.199
2023-01-12T04:02:16.508Z,5.800
2023-01-12T04:03:16.464Z,7.099
2023-01-12T04:04:16.759Z,5.599
2023-01-12T04:05:16.478Z,4.099
2023-01-12T04:06:16.603Z,6.199
2023-01-12T04:07:16.950Z,6.599
2023-01-12T04:08:16.992Z,5
2023-01-12T04:09:16.964Z,4.699
2023-01-12T04:10:17.077Z,4.199
2023-01-12T04:11:16.773Z,5.800
2023-01-12T04:12:16.988Z,5.5
2023-01-12T04:13:17.004Z,5.199
2023-01-12T04:14:16.978Z,5.800
2023-01-12T04:15:16.660Z,4.199
2023-01-12T04:16:16.577Z,4.900
2023-01-12T04:17:16.634Z,5.5
2023-01-12T04:18:16.828Z,4.099
2023-01-12T04:19:16.834Z,3.400
2023-01-12T04:20:16.708Z,4.900
2023-01-12T04:21:16.812Z,6.099
2023-01-12T04:22:16.485Z,4.5
2023-01-12T04:23:16.844Z,3.099
2023-01-12T04:24:16.534Z,3.299
2023-01-12T04:26:17.194Z,4.400
2023-01-12T04:27:16.659Z,4.800
2023-01-12T04:28:16.223Z,2.599
2023-01-12T04:29:16.270Z,6.099
2023-01-12T04:30:17.050Z,3.400
2023-01-12T04:31:16.717Z,4
2023-01-12T04:32:16.797Z,3.599
2023-01-12T04:33:17.009Z,6.599
2023-01-12T04:34:17.084Z,4.199
2023-01-12T04:35:16.371Z,4.400
2023-01-12T04:36:16.501Z,4.599
2023-01-12T04:37:16.726Z,3.599
2023-01-12T04:38:16.785Z,3.299
2023-01-12T04:39:16.823Z,3.700
2023-01-12T04:40:16.825Z,4.699
2023-01-12T04:42:16.822Z,3.799
2023-01-12T04:43:16.297Z,3.599
2023-01-12T04:44:16.269Z,4.199
2023-01-12T04:46:16.116Z,3.099
2023-01-12T04:47:16.701Z,3.799
2023-01-12T04:48:16.107Z,4.800
2023-01-12T04:49:16.320Z,2.700
2023-01-12T04:50:16.933Z,4.099
2023-01-12T04:51:16.608Z,2.799
2023-01-12T04:52:15.917Z,4.699
2023-01-12T04:53:16.400Z,3.400
2023-01-12T04:54:16.474Z,4.099
2023-01-12T04:55:16.206Z,2.700
2023-01-12T04:56:16.053Z,4.699
2023-01-12T04:57:16.650Z,2.700
2023-01-12T04:58:15.731Z,4.300
2023-01-12T04:59:16.442Z,3.5
2023-01-12T05:00:16.447Z,4
2023-01-12T05:01:16.245Z,4.199
2023-01-12T05:02:16.399Z,2.900
2023-01-12T05:03:16.033Z,3.599
2023-01-12T05:04:16.401Z,4.199
2023-01-12T05:05:16.257Z,3.200
2023-01-12T05:06:16.415Z,3.599
2023-01-12T05:07:16.141Z,4.400
2023-01-12T05:08:16.477Z,4
2023-01-12T05:09:17.424Z,3.900
2023-01-12T05:10:16.031Z,2.900
2023-01-12T05:11:16.328Z,4.300
2023-01-12T05:12:16.455Z,4.199
2023-01-12T05:13:16.668Z,2.200
2023-01-12T05:14:16.026Z,3.099
2023-01-12T05:15:16.303Z,4.400
2023-01-12T05:17:16.332Z,3
2023-01-12T05:18:16.666Z,2.400
2023-01-12T05:19:38.348Z,3.5
2023-01-12T05:20:16.537Z,2.799
2023-01-12T05:21:15.924Z,3.099
2023-01-12T05:22:16.130Z,2.799
2023-01-12T05:23:16.586Z,3.599
2023-01-12T05:24:16.227Z,1.899
2023-01-12T05:25:16.913Z,3.5
2023-01-12T05:26:16.359Z,2.799
2023-01-12T05:27:16.053Z,3.200
2023-01-12T05:28:16.181Z,4.400
2023-01-12T05:29:16.696Z,2.200
2023-01-12T05:30:16.697Z,3.099
2023-01-12T05:31:16.285Z,4.599
2023-01-12T05:32:16.669Z,4
2023-01-12T05:33:16.102Z,3.900
2023-01-12T05:34:16.609Z,2.5
2023-01-12T05:35:16.665Z,2.299
2023-01-12T05:36:16.223Z,3.400
2023-01-12T05:37:16.307Z,2.700
2023-01-12T05:38:16.678Z,2.799
2023-01-12T05:39:16.403Z,3
2023-01-12T05:40:16.245Z,2.5
2023-01-12T05:41:16.533Z,1.799
2023-01-12T05:42:16.182Z,3.299
2023-01-12T05:43:16.617Z,1.700
2023-01-12T05:44:15.953Z,1.899
2023-01-12T05:45:16.527Z,3.200
2023-01-12T05:46:16.247Z,1.899
2023-01-12T05:47:15.962Z,2.900
2023-01-12T05:48:16.675Z,3.200
2023-01-12T05:49:16.718Z,2.5
2023-01-12T05:50:16.276Z,3.200
2023-01-12T05:51:16.833Z,1.5
2023-01-12T05:52:16.274Z,2.599
2023-01-12T05:53:16.105Z,2.5
2023-01-12T05:54:16.725Z,3.799
2023-01-12T05:55:16.892Z,2.200
2023-01-12T05:56:16.549Z,1.799
2023-01-12T05:57:16.192Z,2
2023-01-12T05:58:16.515Z,1.899
2023-01-12T05:59:16.479Z,1.799
2023-01-12T06:00:16.637Z,2.799
2023-01-12T06:01:16.388Z,3.200
2023-01-12T06:02:16.357Z,2.599
2023-01-12T06:03:16.661Z,2
2023-01-12T06:04:16.300Z,2.5
2023-01-12T06:05:16.013Z,3.400
2023-01-12T06:06:16.703Z,1.799
2023-01-12T06:07:16.446Z,2.900
2023-01-12T06:08:16.513Z,2.099
2023-01-12T06:09:16.664Z,1.799
2023-01-12T06:10:16.402Z,3.099
2023-01-12T06:11:15.984Z,1.899
2023-01-12T06:12:16.281Z,2.5
2023-01-12T06:13:16.555Z,1.600
2023-01-12T06:14:16.074Z,2.299
2023-01-12T06:15:16.753Z,2
2023-01-12T06:16:16.568Z,1.5
2023-01-12T06:17:16.222Z,2.599
2023-01-12T06:18:16.272Z,1.700
2023-01-12T06:19:16.880Z,1.899
2023-01-12T06:20:16.659Z,1.299
2023-01-12T06:21:16.592Z,2.099
2023-01-12T06:22:16.526Z,1.399
2023-01-12T06:23:16.175Z,2.200
2023-01-12T06:24:16.701Z,1.299
2023-01-12T06:25:16.634Z,3.099
2023-01-12T06:26:16.340Z,1.899
2023-01-12T06:27:16.343Z,2.799
2023-01-12T06:28:16.088Z,1.600
2023-01-12T06:29:16.564Z,2.5
2023-01-12T06:30:16.504Z,2.700
2023-01-12T06:31:16.772Z,1.600
2023-01-12T06:32:16.199Z,2
2023-01-12T06:33:16.440Z,2.200
2023-01-12T06:34:16.287Z,2.299
2023-01-12T06:35:19.556Z,2.400
2023-01-12T06:36:16.331Z,2.299
2023-01-12T06:37:16.299Z,1.899
2023-01-12T06:38:18.909Z,1.5
2023-01-12T06:40:16.095Z,2.400
2023-01-12T06:41:16.637Z,2.200
2023-01-12T06:42:16.221Z,1.799
2023-01-12T06:43:16.638Z,3.5
2023-01-12T06:44:16.423Z,1.700
2023-01-12T06:45:16.920Z,4.300
2023-01-12T06:46:16.415Z,2.599
2023-01-12T06:47:16.275Z,3.700
2023-01-12T06:48:15.999Z,2.400
2023-01-12T06:49:16.368Z,2.299
2023-01-12T06:50:16.214Z,3.400
2023-01-12T06:51:16.195Z,3.299
2023-01-12T06:52:16.516Z,2.5
2023-01-12T06:53:16.153Z,3
2023-01-12T06:54:18.375Z,2.599
2023-01-12T06:55:16.422Z,3
2023-01-12T06:56:15.986Z,3.099
2023-01-12T06:57:16.518Z,4.599
2023-01-12T06:58:16.196Z,5.099
2023-01-12T06:59:16.592Z,2.900
2023-01-12T07:00:16.339Z,4.099
2023-01-12T07:01:16.484Z,3.799
2023-01-12T07:02:16.171Z,3.5
2023-01-12T07:03:16.774Z,2.599
2023-01-12T07:04:16.773Z,3.400
2023-01-12T07:05:16.610Z,2.900
2023-01-12T07:06:17.071Z,3.900
2023-01-12T07:07:16.603Z,4.199
2023-01-12T07:08:16.939Z,4.300
2023-01-12T07:09:17.130Z,4.099
2023-01-12T07:10:16.684Z,3.299
2023-01-12T07:11:17.099Z,4.099
2023-01-12T07:12:16.381Z,3.299
2023-01-12T07:13:16.957Z,5
2023-01-12T07:14:16.510Z,4.5
2023-01-12T07:15:16.538Z,3.799
2023-01-12T07:16:16.404Z,4.400
2023-01-12T07:17:16.636Z,4.699
2023-01-12T07:18:30.677Z,3.200
2023-01-12T07:19:16.596Z,3.900
2023-01-12T07:20:16.889Z,5
2023-01-12T07:21:16.430Z,5.199
2023-01-12T07:22:16.363Z,3
2023-01-12T07:23:16.588Z,4.599
2023-01-12T07:24:16.293Z,3.299
2023-01-12T07:25:16.448Z,5.5
2023-01-12T07:26:16.108Z,5.199
2023-01-12T07:27:16.044Z,3.700
2023-01-12T07:28:16.478Z,4.199
2023-01-12T07:29:17.897Z,4.699
2023-01-12T07:30:16.990Z,4.800
2023-01-12T07:31:17.410Z,4.900
2023-01-12T07:32:16.368Z,5.699
2023-01-12T07:33:18.643Z,4.199
2023-01-12T07:34:16.825Z,5.599
2023-01-12T07:35:16.716Z,5.400
2023-01-12T07:36:16.414Z,5.099
2023-01-12T07:37:16.377Z,5.599
2023-01-12T07:38:16.281Z,4.900
2023-01-12T07:39:16.890Z,5.5
2023-01-12T07:40:16.562Z,5.199
2023-01-12T07:41:16.578Z,6
2023-01-12T07:42:16.542Z,5.300
2023-01-12T07:43:16.412Z,6
2023-01-12T07:45:16.077Z,8.199
2023-01-12T07:46:16.464Z,5.400
2023-01-12T07:47:16.364Z,3.900
2023-01-12T07:48:16.154Z,6.800
2023-01-12T07:49:16.632Z,5.900
2023-01-12T07:50:16.697Z,5.699
2023-01-12T07:53:16.952Z,5.400
2023-01-12T07:54:16.700Z,5.900
2023-01-12T07:55:16.488Z,4.900
2023-01-12T07:56:16.415Z,4.5
2023-01-12T07:57:16.498Z,3.599
2023-01-12T07:58:16.945Z,6
2023-01-12T07:59:16.849Z,5.599
2023-01-12T08:00:17.105Z,5.099
2023-01-12T08:01:16.311Z,4.800
2023-01-12T08:02:16.203Z,4.199
2023-01-12T08:03:16.304Z,4.300
2023-01-12T08:04:16.374Z,3.400
2023-01-12T08:05:17.077Z,5.400
2023-01-12T08:06:16.511Z,5.800
2023-01-12T08:07:16.512Z,4.599
2023-01-12T08:08:16.705Z,3.900
2023-01-12T08:09:17.367Z,6.099
2023-01-12T08:10:16.885Z,5.099
2023-01-12T08:11:16.508Z,4.199
2023-01-12T08:12:17.576Z,2.900
2023-01-12T08:13:16.685Z,5.400
2023-01-12T08:14:17.127Z,4.199
2023-01-12T08:15:16.548Z,3.400
2023-01-12T08:16:16.328Z,4.300
2023-01-12T08:17:16.450Z,3.200
2023-01-12T08:18:16.694Z,2.200
2023-01-12T08:19:16.504Z,3.700
2023-01-12T08:20:16.467Z,3.900
2023-01-12T08:22:16.253Z,4.800
2023-01-12T08:23:16.295Z,3.700
2023-01-12T08:24:16.814Z,3.299
2023-01-12T08:25:16.672Z,2.200
2023-01-12T08:26:16.423Z,4.199
2023-01-12T08:27:16.434Z,3.299
2023-01-12T08:28:16.132Z,2.799
2023-01-12T08:29:16.606Z,3.400
2023-01-12T08:30:16.535Z,4.599
2023-01-12T08:31:16.449Z,3.200
2023-01-12T08:32:16.653Z,4.099
2023-01-12T08:33:16.301Z,3.099
2023-01-12T08:34:16.519Z,2.599
2023-01-12T08:35:16.396Z,2.400
2023-01-12T08:36:16.774Z,3.700
2023-01-12T08:37:16.775Z,2.400
2023-01-12T08:38:16.447Z,1.700
2023-01-12T08:39:16.312Z,1.399
2023-01-12T08:40:16.335Z,2.599
2023-01-12T08:41:16.941Z,2.200
2023-01-12T08:42:17.338Z,3.5
2023-01-12T08:43:17.343Z,2.200
2023-01-12T08:44:17.094Z,1.299
2023-01-12T08:45:16.978Z,1.899
2023-01-12T08:46:16.679Z,1.700
2023-01-12T08:47:17.451Z,2.700
2023-01-12T08:48:17.341Z,2.099
2023-01-12T08:49:17.171Z,2.200
2023-01-12T08:50:16.823Z,2.299
2023-01-12T08:51:16.530Z,1.700
2023-01-12T08:52:17.062Z,3.700
2023-01-12T08:53:18.034Z,2.099
2023-01-12T08:54:17.937Z,2.900
2023-01-12T08:55:17.475Z,2.400
2023-01-12T08:56:17.406Z,2.099
2023-01-12T08:57:17.436Z,2
2023-01-12T08:58:17.128Z,1.799
2023-01-12T08:59:16.757Z,1.700
2023-01-12T09:00:18.336Z,2.700
2023-01-12T09:01:17.508Z,2.400
2023-01-12T09:02:17.769Z,1.600
2023-01-12T09:03:17.307Z,1.799
2023-01-12T09:04:16.755Z,1.700
2023-01-12T09:05:17.304Z,1.899
2023-01-12T09:06:16.936Z,1.299
2023-01-12T09:08:17.132Z,1.600
2023-01-12T09:09:16.215Z,0.899
2023-01-12T09:10:16.583Z,1.299
2023-01-12T09:12:16.328Z,1.799
2023-01-12T09:13:16.414Z,1.299
2023-01-12T09:14:16.318Z,1.600
2023-01-12T09:15:16.381Z,1.299
2023-01-12T09:16:16.334Z,2.599
2023-01-12T09:17:16.571Z,1.299
2023-01-12T09:18:16.150Z,1.399
2023-01-12T09:20:17.004Z,1.600
2023-01-12T09:21:16.800Z,1.200
2023-01-12T09:22:16.661Z,1.700
2023-01-12T09:23:16.706Z,1.899
2023-01-12T09:24:16.460Z,2.200
2023-01-12T09:25:21.459Z,2.799
2023-01-12T09:26:16.329Z,1.600
2023-01-12T09:27:21.597Z,2.099
2023-01-12T09:28:16.560Z,2
2023-01-12T09:29:21.820Z,1.100
2023-01-12T09:30:16.724Z,2.099
2023-01-12T09:31:18.726Z,1.799
2023-01-12T09:32:18.506Z,1.600
2023-01-12T09:33:16.351Z,1.100
2023-01-12T09:34:16.412Z,2.200
2023-01-12T09:35:16.713Z,1.5
2023-01-12T09:36:16.454Z,0.600
2023-01-12T09:37:16.191Z,2.400
2023-01-12T09:38:16.656Z,1
2023-01-12T09:39:26.931Z,1.399
2023-01-12T09:40:16.733Z,1.799
2023-01-12T09:42:16.767Z,2.299
2023-01-12T09:43:16.927Z,1.799
2023-01-12T09:44:17.271Z,1.899
2023-01-12T09:45:16.351Z,2.599
2023-01-12T09:46:16.385Z,1.600
2023-01-12T09:47:30.316Z,3.099
2023-01-12T09:48:16.793Z,2.299
2023-01-12T09:50:16.642Z,1.299
2023-01-12T09:51:16.662Z,1.100
2023-01-12T09:52:16.653Z,0.699
2023-01-12T09:53:16.683Z,1.5
2023-01-12T09:54:16.444Z,1.799
2023-01-12T09:55:16.516Z,1.899
2023-01-12T09:56:16.639Z,0.5
2023-01-12T09:57:28.313Z,1.399
2023-01-12T09:58:17.174Z,2.099
2023-01-12T09:59:18.366Z,1
2023-01-12T10:00:17.402Z,2.099
2023-01-12T10:01:28.165Z,2.799
2023-01-12T10:02:16.185Z,1.200
2023-01-12T10:04:17.361Z,1.299
2023-01-12T10:05:17.166Z,1.5
2023-01-12T10:06:16.391Z,1.200
2023-01-12T10:07:17.443Z,1.899
2023-01-12T10:08:16.827Z,1.399
2023-01-12T10:09:16.444Z,2.200
2023-01-12T10:10:16.260Z,1.200
2023-01-12T10:11:16.660Z,2
2023-01-12T10:12:16.979Z,1.299
2023-01-12T10:13:16.638Z,1.5
2023-01-12T10:14:16.776Z,1
2023-01-12T10:15:16.833Z,1.200
2023-01-12T10:16:16.349Z,1.399
2023-01-12T10:17:16.467Z,1
2023-01-12T10:18:16.221Z,1.399
2023-01-12T10:19:16.448Z,1.700
2023-01-12T10:20:18.196Z,1.5
2023-01-12T10:21:16.563Z,1.299
2023-01-12T10:22:16.434Z,2.200
2023-01-12T10:23:16.490Z,1.600
2023-01-12T10:24:16.368Z,1.100
2023-01-12T10:25:16.586Z,0.600
2023-01-12T10:26:16.874Z,0.899
2023-01-12T10:27:16.651Z,2.200
2023-01-12T10:28:16.399Z,1.100
2023-01-12T10:29:16.464Z,1.899
2023-01-12T10:30:16.573Z,2.299
2023-01-12T10:31:17.053Z,1.299
2023-01-12T10:32:16.406Z,1.200
2023-01-12T10:34:16.779Z,1.600
2023-01-12T10:35:16.692Z,2.5
2023-01-12T10:36:16.580Z,0.800
2023-01-12T10:37:16.394Z,1.299
2023-01-12T10:38:16.402Z,1.899
2023-01-12T10:39:16.439Z,1.700
2023-01-12T10:40:16.484Z,1.5
2023-01-12T10:41:16.854Z,1.700
2023-01-12T10:42:17.739Z,1.899
2023-01-12T10:43:20.060Z,1.399
2023-01-12T10:44:16.661Z,1.299
2023-01-12T10:45:17.426Z,1.399
2023-01-12T10:46:17.643Z,2.599
2023-01-12T10:47:16.940Z,1
2023-01-12T10:48:16.813Z,1.399
2023-01-12T10:49:17.140Z,2
2023-01-12T10:50:16.941Z,1.100
2023-01-12T10:51:17.187Z,1.600
2023-01-12T10:52:16.575Z,1.899
2023-01-12T10:53:17.110Z,1.5
2023-01-12T10:54:16.410Z,0.899
2023-01-12T10:55:17.339Z,2
2023-01-12T10:56:16.375Z,0.699
2023-01-12T10:57:16.432Z,0.899
2023-01-12T10:58:16.535Z,1.600
2023-01-12T11:00:17.671Z,1.100
2023-01-12T11:01:17.306Z,0.899
2023-01-12T11:02:16.876Z,1.799
2023-01-12T11:03:17.276Z,2.200
2023-01-12T11:04:16.940Z,0.899
2023-01-12T11:05:16.889Z,0.600
2023-01-12T11:06:16.657Z,0.899
2023-01-12T11:07:16.808Z,1.899
2023-01-12T11:08:16.655Z,1.700
2023-01-12T11:09:16.929Z,0.800
2023-01-12T11:10:16.434Z,2.299
2023-01-12T11:11:16.566Z,1.399
2023-01-12T11:12:16.234Z,0.699
2023-01-12T11:13:16.247Z,2.400
2023-01-12T11:14:22.448Z,1.100
2023-01-12T11:15:16.625Z,1.899
2023-01-12T11:16:16.794Z,2.099
2023-01-12T11:17:17.050Z,2.299
2023-01-12T11:19:16.991Z,1.799
2023-01-12T11:20:18.280Z,2.799
2023-01-12T11:21:17.509Z,2.099
2023-01-12T11:22:17.053Z,2
2023-01-12T11:23:16.846Z,1.5
2023-01-12T11:24:16.575Z,2.099
2023-01-12T11:25:17.236Z,1.399
2023-01-12T11:26:17.238Z,2.099
2023-01-12T11:27:16.775Z,2.900
2023-01-12T11:28:17.446Z,1.399
2023-01-12T11:29:17.390Z,3
2023-01-12T11:30:17.967Z,1.700
2023-01-12T11:31:17.124Z,1.399
2023-01-12T11:32:17.001Z,2.099
2023-01-12T11:33:17.911Z,2.599
2023-01-12T11:34:17.219Z,1.600
2023-01-12T11:35:17.008Z,2
2023-01-12T11:36:17.108Z,2.200
2023-01-12T11:37:17.019Z,2.299
2023-01-12T11:38:16.474Z,1.799
2023-01-12T11:39:17.535Z,2.400
2023-01-12T11:40:17.434Z,2
2023-01-12T11:41:19.114Z,2.400
2023-01-12T11:42:16.980Z,1.399
2023-01-12T11:43:16.998Z,2.200
2023-01-12T11:44:16.373Z,1.700
2023-01-12T11:45:17.373Z,2.700
2023-01-12T11:46:16.725Z,2.299
2023-01-12T11:47:16.566Z,1.799
2023-01-12T11:48:16.840Z,2.599
2023-01-12T11:49:17.203Z,2.099
2023-01-12T11:50:16.752Z,2.700
2023-01-12T11:51:16.970Z,2
2023-01-12T11:52:16.947Z,2.200
2023-01-12T11:53:16.432Z,3.400
2023-01-12T11:54:17.138Z,1.799
2023-01-12T11:55:16.845Z,2
2023-01-12T11:56:16.851Z,3.700
2023-01-12T11:57:16.678Z,2
2023-01-12T11:58:22.112Z,1.799
2023-01-12T11:59:17.171Z,1.100
2023-01-12T12:00:22.669Z,1.399
2023-01-12T12:01:16.816Z,2.099
2023-01-12T12:02:16.543Z,1.399
2023-01-12T12:03:16.631Z,4.199
2023-01-12T12:04:16.685Z,2.099
2023-01-12T12:05:16.842Z,1.5
2023-01-12T12:06:16.664Z,2
2023-01-12T12:07:16.199Z,1.899
2023-01-12T12:08:30.686Z,1.5
2023-01-12T12:09:16.347Z,1.100
2023-01-12T12:10:16.469Z,3.299
2023-01-12T12:11:16.356Z,2.5
2023-01-12T12:12:16.418Z,1.100
2023-01-12T12:13:16.361Z,1.5
2023-01-12T12:14:16.402Z,2.5
2023-01-12T12:15:16.453Z,2.400
2023-01-12T12:16:16.516Z,1.100
2023-01-12T12:17:16.409Z,1.700
2023-01-12T12:18:16.316Z,1.399
2023-01-12T12:19:16.659Z,1.899
2023-01-12T12:20:17.041Z,2
2023-01-12T12:21:16.872Z,1.399
2023-01-12T12:22:17.163Z,1.200
2023-01-12T12:23:17.063Z,1
2023-01-12T12:24:16.352Z,0.899
2023-01-12T12:25:16.499Z,1.299
2023-01-12T12:26:16.466Z,1.899
2023-01-12T12:27:16.839Z,1.399
2023-01-12T12:28:16.571Z,1.899
2023-01-12T12:30:16.521Z,1.5
2023-01-12T12:31:16.571Z,1.799
2023-01-12T12:32:17.583Z,2.299
2023-01-12T12:33:17.201Z,1.100
2023-01-12T12:34:17.077Z,2.099
2023-01-12T12:35:16.679Z,1.399
2023-01-12T12:36:37.960Z,1.100
2023-01-12T12:37:17.165Z,1.200
2023-01-12T12:38:16.297Z,1.600
2023-01-12T12:39:16.644Z,1.200
2023-01-12T12:40:16.495Z,2.599
2023-01-12T12:41:16.836Z,1.299
2023-01-12T12:42:17.245Z,1.799
2023-01-12T12:44:17.106Z,0.899
2023-01-12T12:45:17.208Z,1
2023-01-12T12:47:17.936Z,1.600
2023-01-12T12:48:17.116Z,0.899
2023-01-12T12:49:17.723Z,0.800
2023-01-12T12:50:17.559Z,2.099
2023-01-12T12:51:17.602Z,0.400
2023-01-12T12:52:17.610Z,1
2023-01-12T12:53:17.786Z,2
2023-01-12T12:54:17.166Z,1.5
2023-01-12T12:55:17.606Z,1.200
2023-01-12T12:56:17.261Z,1.299
2023-01-12T12:57:17.271Z,2
2023-01-12T12:58:17.215Z,0.800
2023-01-12T12:59:17.247Z,2.200
2023-01-12T13:02:17.049Z,0.600
2023-01-12T13:03:16.936Z,0.800
2023-01-12T13:04:17.001Z,1
2023-01-12T13:05:17.688Z,1.100
2023-01-12T13:06:16.618Z,1.799
2023-01-12T13:07:17.887Z,2
2023-01-12T13:08:17.041Z,1.600
2023-01-12T13:09:17.103Z,1.299
2023-01-12T13:10:16.467Z,1
2023-01-12T13:11:16.597Z,0.699
2023-01-12T13:12:18.891Z,1.5
2023-01-12T13:13:16.853Z,1.100
2023-01-12T13:14:16.608Z,2.400
2023-01-12T13:15:17.208Z,0.800
2023-01-12T13:16:16.556Z,1.200
2023-01-12T13:17:16.935Z,1.100
2023-01-12T13:18:18.651Z,0.899
2023-01-12T13:21:17.277Z,1.399
2023-01-12T13:22:16.703Z,1.200
2023-01-12T13:23:17.084Z,0.800
2023-01-12T13:24:19.146Z,1.100
2023-01-12T13:25:17.068Z,0.5
2023-01-12T13:26:16.396Z,1.600
2023-01-12T13:27:16.810Z,1.299
2023-01-12T13:28:16.570Z,0.800
2023-01-12T13:29:16.713Z,1.700
2023-01-12T13:30:19.035Z,0.800
2023-01-12T13:31:16.903Z,1.299
2023-01-12T13:32:16.511Z,1.200
2023-01-12T13:33:16.900Z,1.399
2023-01-12T13:34:16.656Z,0.600
2023-01-12T13:35:16.763Z,1.200
2023-01-12T13:36:16.687Z,0.800
2023-01-12T13:37:16.582Z,1.399
2023-01-12T13:38:16.346Z,0.600
2023-01-12T13:39:16.475Z,0.899
2023-01-12T13:40:16.589Z,1
2023-01-12T13:41:17.222Z,0.5
2023-01-12T13:42:16.727Z,0.699
2023-01-12T13:43:17.407Z,0.899
2023-01-12T13:44:17.485Z,0.400
2023-01-12T13:45:18.317Z,1
2023-01-12T13:46:17.778Z,1.299
2023-01-12T13:47:17.022Z,1.100
2023-01-12T13:48:18.870Z,0.5